sensor_id;sensor_type;location;lat;lon;timestamp;P1;durP1;ratioP1;P2;durP2;ratioP2
25846;SDS011;13676;50.168;8.568;2024-01-10T00:01:06;33.83;;;17.58;;
25846;SDS011;13676;50.168;8.568;2024-01-10T00:03:33;32.90;;;15.75;;
25846;SDS011;13676;50.168;8.568;2024-01-10T00:05:58;31.38;;;14.38;;
25846;SDS011;13676;50.168;8.568;2024-01-10T00:08:23;33.47;;;15.98;;
25846;SDS011;13676;50.168;8.568;2024-01-10T00:10:49;31.63;;;16.60;;
25846;SDS011;13676;50.168;8.568;2024-01-10T00:13:15;33.25;;;16.63;;
25846;SDS011;13676;50.168;8.568;2024-01-10T00:15:40;30.80;;;14.80;;
25846;SDS011;13676;50.168;8.568;2024-01-10T00:18:06;37.33;;;16.67;;
25846;SDS011;13676;50.168;8.568;2024-01-10T00:20:31;36.55;;;18.10;;
25846;SDS011;13676;50.168;8.568;2024-01-10T00:22:57;35.95;;;16.65;;
25846;SDS011;13676;50.168;8.568;2024-01-10T00:25:23;35.97;;;17.35;;
25846;SDS011;13676;50.168;8.568;2024-01-10T00:27:48;34.90;;;15.27;;
25846;SDS011;13676;50.168;8.568;2024-01-10T00:30:14;34.88;;;15.70;;
25846;SDS011;13676;50.168;8.568;2024-01-10T00:32:39;39.80;;;17.75;;
25846;SDS011;13676;50.168;8.568;2024-01-10T00:35:05;36.30;;;17.20;;
25846;SDS011;13676;50.168;8.568;2024-01-10T00:37:30;34.63;;;17.38;;
25846;SDS011;13676;50.168;8.568;2024-01-10T00:39:56;34.08;;;16.65;;
25846;SDS011;13676;50.168;8.568;2024-01-10T00:42:22;32.13;;;16.10;;
25846;SDS011;13676;50.168;8.568;2024-01-10T00:44:48;31.83;;;16.45;;
25846;SDS011;13676;50.168;8.568;2024-01-10T00:47:13;38.63;;;18.17;;
25846;SDS011;13676;50.168;8.568;2024-01-10T00:49:39;37.08;;;17.23;;
25846;SDS011;13676;50.168;8.568;2024-01-10T00:52:04;35.88;;;17.52;;
25846;SDS011;13676;50.168;8.568;2024-01-10T00:54:30;35.63;;;16.42;;
25846;SDS011;13676;50.168;8.568;2024-01-10T00:56:55;37.33;;;18.05;;
25846;SDS011;13676;50.168;8.568;2024-01-10T00:59:20;34.95;;;17.27;;
25846;SDS011;13676;50.168;8.568;2024-01-10T01:01:46;45.53;;;19.63;;
25846;SDS011;13676;50.168;8.568;2024-01-10T01:04:11;36.78;;;18.63;;
25846;SDS011;13676;50.168;8.568;2024-01-10T01:06:36;43.50;;;19.65;;
25846;SDS011;13676;50.168;8.568;2024-01-10T01:09:02;38.28;;;18.50;;
25846;SDS011;13676;50.168;8.568;2024-01-10T01:11:27;37.13;;;17.67;;
25846;SDS011;13676;50.168;8.568;2024-01-10T01:13:52;37.08;;;17.35;;
25846;SDS011;13676;50.168;8.568;2024-01-10T01:16:18;37.97;;;19.17;;
25846;SDS011;13676;50.168;8.568;2024-01-10T01:18:44;44.38;;;21.20;;
25846;SDS011;13676;50.168;8.568;2024-01-10T01:21:10;41.25;;;19.70;;
25846;SDS011;13676;50.168;8.568;2024-01-10T01:23:36;47.92;;;20.67;;
25846;SDS011;13676;50.168;8.568;2024-01-10T01:26:01;41.90;;;20.77;;
25846;SDS011;13676;50.168;8.568;2024-01-10T01:28:28;42.45;;;20.85;;
25846;SDS011;13676;50.168;8.568;2024-01-10T01:30:54;49.80;;;21.65;;
25846;SDS011;13676;50.168;8.568;2024-01-10T01:33:19;47.03;;;20.20;;
25846;SDS011;13676;50.168;8.568;2024-01-10T01:35:45;43.03;;;19.83;;
25846;SDS011;13676;50.168;8.568;2024-01-10T01:38:10;40.05;;;20.10;;
25846;SDS011;13676;50.168;8.568;2024-01-10T01:40:35;47.42;;;20.25;;
25846;SDS011;13676;50.168;8.568;2024-01-10T01:43:01;42.97;;;21.27;;
25846;SDS011;13676;50.168;8.568;2024-01-10T01:45:27;48.72;;;20.70;;
25846;SDS011;13676;50.168;8.568;2024-01-10T01:47:52;43.97;;;19.40;;
25846;SDS011;13676;50.168;8.568;2024-01-10T01:50:17;45.92;;;21.42;;
25846;SDS011;13676;50.168;8.568;2024-01-10T01:52:43;43.55;;;21.98;;
25846;SDS011;13676;50.168;8.568;2024-01-10T01:55:09;43.80;;;21.50;;
25846;SDS011;13676;50.168;8.568;2024-01-10T01:57:36;42.78;;;20.08;;
25846;SDS011;13676;50.168;8.568;2024-01-10T02:00:02;43.10;;;21.10;;
25846;SDS011;13676;50.168;8.568;2024-01-10T02:02:29;44.05;;;21.13;;
25846;SDS011;13676;50.168;8.568;2024-01-10T02:04:55;44.03;;;19.42;;
25846;SDS011;13676;50.168;8.568;2024-01-10T02:07:23;48.53;;;22.08;;
25846;SDS011;13676;50.168;8.568;2024-01-10T02:09:49;45.83;;;20.35;;
25846;SDS011;13676;50.168;8.568;2024-01-10T02:12:14;42.95;;;17.85;;
25846;SDS011;13676;50.168;8.568;2024-01-10T02:14:40;37.83;;;18.77;;
25846;SDS011;13676;50.168;8.568;2024-01-10T02:17:05;40.42;;;20.67;;
25846;SDS011;13676;50.168;8.568;2024-01-10T02:19:32;49.97;;;21.85;;
25846;SDS011;13676;50.168;8.568;2024-01-10T02:21:59;42.80;;;20.05;;
25846;SDS011;13676;50.168;8.568;2024-01-10T02:24:25;46.28;;;21.02;;
25846;SDS011;13676;50.168;8.568;2024-01-10T02:26:51;43.33;;;20.98;;
25846;SDS011;13676;50.168;8.568;2024-01-10T02:29:16;46.15;;;22.13;;
25846;SDS011;13676;50.168;8.568;2024-01-10T02:31:45;44.40;;;20.35;;
25846;SDS011;13676;50.168;8.568;2024-01-10T02:34:10;52.45;;;22.73;;
25846;SDS011;13676;50.168;8.568;2024-01-10T02:36:35;43.45;;;20.90;;
25846;SDS011;13676;50.168;8.568;2024-01-10T02:39:01;48.00;;;21.95;;
25846;SDS011;13676;50.168;8.568;2024-01-10T02:41:26;44.72;;;21.38;;
25846;SDS011;13676;50.168;8.568;2024-01-10T02:43:52;44.88;;;19.95;;
25846;SDS011;13676;50.168;8.568;2024-01-10T02:46:17;42.70;;;21.00;;
25846;SDS011;13676;50.168;8.568;2024-01-10T02:48:44;47.15;;;21.33;;
25846;SDS011;13676;50.168;8.568;2024-01-10T02:51:09;47.55;;;22.08;;
25846;SDS011;13676;50.168;8.568;2024-01-10T02:53:35;46.60;;;20.75;;
25846;SDS011;13676;50.168;8.568;2024-01-10T02:56:00;50.20;;;22.63;;
25846;SDS011;13676;50.168;8.568;2024-01-10T02:58:25;56.75;;;23.70;;
25846;SDS011;13676;50.168;8.568;2024-01-10T03:00:51;47.00;;;23.48;;
25846;SDS011;13676;50.168;8.568;2024-01-10T03:03:16;49.67;;;21.85;;
25846;SDS011;13676;50.168;8.568;2024-01-10T03:05:44;51.17;;;23.15;;
25846;SDS011;13676;50.168;8.568;2024-01-10T03:08:11;55.70;;;23.30;;
25846;SDS011;13676;50.168;8.568;2024-01-10T03:10:36;47.75;;;22.17;;
25846;SDS011;13676;50.168;8.568;2024-01-10T03:13:02;49.33;;;23.42;;
25846;SDS011;13676;50.168;8.568;2024-01-10T03:15:27;45.60;;;22.02;;
25846;SDS011;13676;50.168;8.568;2024-01-10T03:17:53;44.45;;;21.38;;
25846;SDS011;13676;50.168;8.568;2024-01-10T03:20:18;47.85;;;21.65;;
25846;SDS011;13676;50.168;8.568;2024-01-10T03:22:46;51.85;;;23.35;;
25846;SDS011;13676;50.168;8.568;2024-01-10T03:25:11;44.47;;;22.35;;
25846;SDS011;13676;50.168;8.568;2024-01-10T03:27:37;49.85;;;21.38;;
25846;SDS011;13676;50.168;8.568;2024-01-10T03:30:02;50.90;;;19.58;;
25846;SDS011;13676;50.168;8.568;2024-01-10T03:32:29;49.97;;;22.27;;
25846;SDS011;13676;50.168;8.568;2024-01-10T03:34:54;48.25;;;23.40;;
25846;SDS011;13676;50.168;8.568;2024-01-10T03:37:20;47.72;;;22.73;;
25846;SDS011;13676;50.168;8.568;2024-01-10T03:39:45;44.47;;;22.33;;
25846;SDS011;13676;50.168;8.568;2024-01-10T03:42:10;47.00;;;23.17;;
25846;SDS011;13676;50.168;8.568;2024-01-10T03:44:36;48.65;;;22.10;;
25846;SDS011;13676;50.168;8.568;2024-01-10T03:47:01;44.97;;;20.65;;
25846;SDS011;13676;50.168;8.568;2024-01-10T03:49:27;41.03;;;18.50;;
25846;SDS011;13676;50.168;8.568;2024-01-10T03:51:52;45.22;;;21.48;;
25846;SDS011;13676;50.168;8.568;2024-01-10T03:54:17;46.33;;;21.73;;
25846;SDS011;13676;50.168;8.568;2024-01-10T03:56:43;47.13;;;21.75;;
25846;SDS011;13676;50.168;8.568;2024-01-10T03:59:08;49.03;;;22.77;;
25846;SDS011;13676;50.168;8.568;2024-01-10T04:01:33;47.92;;;23.17;;
25846;SDS011;13676;50.168;8.568;2024-01-10T04:03:58;49.22;;;21.90;;
25846;SDS011;13676;50.168;8.568;2024-01-10T04:06:24;47.85;;;22.25;;
25846;SDS011;13676;50.168;8.568;2024-01-10T04:08:50;48.22;;;22.45;;
25846;SDS011;13676;50.168;8.568;2024-01-10T04:11:15;52.65;;;23.83;;
25846;SDS011;13676;50.168;8.568;2024-01-10T04:13:41;52.85;;;24.20;;
25846;SDS011;13676;50.168;8.568;2024-01-10T04:16:06;50.20;;;22.83;;
25846;SDS011;13676;50.168;8.568;2024-01-10T04:18:32;45.17;;;21.27;;
25846;SDS011;13676;50.168;8.568;2024-01-10T04:20:57;46.03;;;22.23;;
25846;SDS011;13676;50.168;8.568;2024-01-10T04:23:22;53.45;;;21.70;;
25846;SDS011;13676;50.168;8.568;2024-01-10T04:25:48;45.88;;;21.98;;
25846;SDS011;13676;50.168;8.568;2024-01-10T04:28:13;49.67;;;23.10;;
25846;SDS011;13676;50.168;8.568;2024-01-10T04:30:38;55.38;;;22.23;;
25846;SDS011;13676;50.168;8.568;2024-01-10T04:33:05;46.13;;;20.55;;
25846;SDS011;13676;50.168;8.568;2024-01-10T04:35:30;52.50;;;21.70;;
25846;SDS011;13676;50.168;8.568;2024-01-10T04:37:55;50.38;;;22.77;;
25846;SDS011;13676;50.168;8.568;2024-01-10T04:40:21;44.22;;;20.52;;
25846;SDS011;13676;50.168;8.568;2024-01-10T04:42:46;41.85;;;19.02;;
25846;SDS011;13676;50.168;8.568;2024-01-10T04:45:11;45.88;;;21.58;;
25846;SDS011;13676;50.168;8.568;2024-01-10T04:47:37;49.40;;;22.45;;
25846;SDS011;13676;50.168;8.568;2024-01-10T04:50:02;45.15;;;21.30;;
25846;SDS011;13676;50.168;8.568;2024-01-10T04:52:28;51.92;;;22.17;;
25846;SDS011;13676;50.168;8.568;2024-01-10T04:54:53;44.58;;;22.00;;
25846;SDS011;13676;50.168;8.568;2024-01-10T04:57:18;45.00;;;20.55;;
25846;SDS011;13676;50.168;8.568;2024-01-10T04:59:44;43.45;;;19.55;;
25846;SDS011;13676;50.168;8.568;2024-01-10T05:02:09;41.03;;;19.73;;
25846;SDS011;13676;50.168;8.568;2024-01-10T05:04:35;44.97;;;20.13;;
25846;SDS011;13676;50.168;8.568;2024-01-10T05:07:00;43.53;;;18.92;;
25846;SDS011;13676;50.168;8.568;2024-01-10T05:09:25;38.70;;;18.75;;
25846;SDS011;13676;50.168;8.568;2024-01-10T05:11:51;42.55;;;19.73;;
25846;SDS011;13676;50.168;8.568;2024-01-10T05:14:17;36.47;;;16.48;;
25846;SDS011;13676;50.168;8.568;2024-01-10T05:17:02;37.40;;;18.10;;
25846;SDS011;13676;50.168;8.568;2024-01-10T05:19:28;40.72;;;18.95;;
25846;SDS011;13676;50.168;8.568;2024-01-10T05:21:54;42.67;;;17.15;;
25846;SDS011;13676;50.168;8.568;2024-01-10T05:24:20;38.80;;;18.45;;
25846;SDS011;13676;50.168;8.568;2024-01-10T05:26:45;37.92;;;19.02;;
25846;SDS011;13676;50.168;8.568;2024-01-10T05:29:10;46.47;;;17.38;;
25846;SDS011;13676;50.168;8.568;2024-01-10T05:31:36;36.80;;;18.20;;
25846;SDS011;13676;50.168;8.568;2024-01-10T05:34:01;41.97;;;20.25;;
25846;SDS011;13676;50.168;8.568;2024-01-10T05:36:26;47.35;;;20.42;;
25846;SDS011;13676;50.168;8.568;2024-01-10T05:38:52;37.20;;;17.55;;
25846;SDS011;13676;50.168;8.568;2024-01-10T05:41:17;39.65;;;17.88;;
25846;SDS011;13676;50.168;8.568;2024-01-10T05:43:42;38.00;;;16.55;;
25846;SDS011;13676;50.168;8.568;2024-01-10T05:46:09;40.13;;;19.55;;
25846;SDS011;13676;50.168;8.568;2024-01-10T05:48:35;47.33;;;21.65;;
25846;SDS011;13676;50.168;8.568;2024-01-10T05:51:00;47.90;;;19.83;;
25846;SDS011;13676;50.168;8.568;2024-01-10T05:53:26;54.60;;;23.95;;
25846;SDS011;13676;50.168;8.568;2024-01-10T05:55:53;45.67;;;20.80;;
25846;SDS011;13676;50.168;8.568;2024-01-10T05:58:19;46.70;;;22.25;;
25846;SDS011;13676;50.168;8.568;2024-01-10T06:00:45;51.70;;;23.75;;
25846;SDS011;13676;50.168;8.568;2024-01-10T06:03:10;49.10;;;23.55;;
25846;SDS011;13676;50.168;8.568;2024-01-10T06:05:36;49.58;;;20.15;;
25846;SDS011;13676;50.168;8.568;2024-01-10T06:08:01;50.40;;;21.52;;
25846;SDS011;13676;50.168;8.568;2024-01-10T06:10:29;50.63;;;24.27;;
25846;SDS011;13676;50.168;8.568;2024-01-10T06:12:54;51.88;;;22.92;;
25846;SDS011;13676;50.168;8.568;2024-01-10T06:15:20;45.88;;;21.13;;
25846;SDS011;13676;50.168;8.568;2024-01-10T06:17:45;48.95;;;21.80;;
25846;SDS011;13676;50.168;8.568;2024-01-10T06:20:11;46.33;;;21.55;;
25846;SDS011;13676;50.168;8.568;2024-01-10T06:22:37;47.08;;;23.30;;
25846;SDS011;13676;50.168;8.568;2024-01-10T06:25:02;47.75;;;23.17;;
25846;SDS011;13676;50.168;8.568;2024-01-10T06:27:34;48.13;;;23.05;;
25846;SDS011;13676;50.168;8.568;2024-01-10T06:30:14;51.28;;;22.88;;
25846;SDS011;13676;50.168;8.568;2024-01-10T06:32:39;51.00;;;22.70;;
25846;SDS011;13676;50.168;8.568;2024-01-10T06:35:06;55.22;;;22.63;;
25846;SDS011;13676;50.168;8.568;2024-01-10T06:37:34;47.30;;;21.70;;
25846;SDS011;13676;50.168;8.568;2024-01-10T06:39:59;51.42;;;21.92;;
25846;SDS011;13676;50.168;8.568;2024-01-10T06:42:25;52.10;;;21.23;;
25846;SDS011;13676;50.168;8.568;2024-01-10T06:44:52;36.92;;;15.63;;
25846;SDS011;13676;50.168;8.568;2024-01-10T06:47:19;40.03;;;18.95;;
25846;SDS011;13676;50.168;8.568;2024-01-10T06:49:46;50.10;;;21.30;;
25846;SDS011;13676;50.168;8.568;2024-01-10T06:52:13;43.85;;;21.70;;
25846;SDS011;13676;50.168;8.568;2024-01-10T06:54:42;52.90;;;22.67;;
25846;SDS011;13676;50.168;8.568;2024-01-10T06:57:13;56.72;;;25.60;;
25846;SDS011;13676;50.168;8.568;2024-01-10T06:59:49;57.28;;;24.42;;
25846;SDS011;13676;50.168;8.568;2024-01-10T07:02:19;53.13;;;24.50;;
25846;SDS011;13676;50.168;8.568;2024-01-10T07:04:46;51.35;;;23.55;;
25846;SDS011;13676;50.168;8.568;2024-01-10T07:07:13;58.08;;;24.08;;
25846;SDS011;13676;50.168;8.568;2024-01-10T07:09:43;55.55;;;24.15;;
25846;SDS011;13676;50.168;8.568;2024-01-10T07:12:16;49.63;;;24.05;;
25846;SDS011;13676;50.168;8.568;2024-01-10T07:14:44;54.08;;;25.00;;
25846;SDS011;13676;50.168;8.568;2024-01-10T07:17:14;59.67;;;24.17;;
25846;SDS011;13676;50.168;8.568;2024-01-10T07:19:44;55.08;;;25.45;;
25846;SDS011;13676;50.168;8.568;2024-01-10T07:22:12;46.92;;;23.85;;
25846;SDS011;13676;50.168;8.568;2024-01-10T07:24:46;55.72;;;25.35;;
25846;SDS011;13676;50.168;8.568;2024-01-10T07:27:19;53.67;;;24.80;;
25846;SDS011;13676;50.168;8.568;2024-01-10T07:29:46;53.45;;;24.73;;
25846;SDS011;13676;50.168;8.568;2024-01-10T07:32:12;49.97;;;26.13;;
25846;SDS011;13676;50.168;8.568;2024-01-10T07:34:47;55.85;;;26.95;;
25846;SDS011;13676;50.168;8.568;2024-01-10T07:37:17;51.65;;;25.42;;
25846;SDS011;13676;50.168;8.568;2024-01-10T07:39:46;53.13;;;25.73;;
25846;SDS011;13676;50.168;8.568;2024-01-10T07:42:13;55.17;;;28.17;;
25846;SDS011;13676;50.168;8.568;2024-01-10T07:47:15;58.65;;;25.70;;
25846;SDS011;13676;50.168;8.568;2024-01-10T07:49:40;56.05;;;26.00;;
25846;SDS011;13676;50.168;8.568;2024-01-10T07:52:07;54.20;;;26.67;;
25846;SDS011;13676;50.168;8.568;2024-01-10T07:54:33;53.97;;;26.38;;
25846;SDS011;13676;50.168;8.568;2024-01-10T07:56:58;52.45;;;24.50;;
25846;SDS011;13676;50.168;8.568;2024-01-10T07:59:23;57.05;;;24.70;;
25846;SDS011;13676;50.168;8.568;2024-01-10T08:01:55;54.25;;;25.00;;
25846;SDS011;13676;50.168;8.568;2024-01-10T08:04:26;53.58;;;21.38;;
25846;SDS011;13676;50.168;8.568;2024-01-10T08:06:52;49.22;;;20.98;;
25846;SDS011;13676;50.168;8.568;2024-01-10T08:09:36;51.67;;;22.02;;
25846;SDS011;13676;50.168;8.568;2024-01-10T08:12:05;53.70;;;24.92;;
25846;SDS011;13676;50.168;8.568;2024-01-10T08:14:49;55.42;;;24.92;;
25846;SDS011;13676;50.168;8.568;2024-01-10T08:17:17;51.67;;;24.95;;
25846;SDS011;13676;50.168;8.568;2024-01-10T08:19:46;53.97;;;25.33;;
25846;SDS011;13676;50.168;8.568;2024-01-10T08:22:11;61.10;;;26.77;;
25846;SDS011;13676;50.168;8.568;2024-01-10T08:27:05;44.50;;;19.60;;
25846;SDS011;13676;50.168;8.568;2024-01-10T08:29:31;57.03;;;25.35;;
25846;SDS011;13676;50.168;8.568;2024-01-10T08:31:59;55.40;;;26.58;;
25846;SDS011;13676;50.168;8.568;2024-01-10T08:34:25;55.95;;;24.67;;
25846;SDS011;13676;50.168;8.568;2024-01-10T08:36:51;55.70;;;25.38;;
25846;SDS011;13676;50.168;8.568;2024-01-10T08:39:19;49.75;;;23.20;;
25846;SDS011;13676;50.168;8.568;2024-01-10T08:41:45;56.58;;;25.35;;
25846;SDS011;13676;50.168;8.568;2024-01-10T08:44:10;56.05;;;25.38;;
25846;SDS011;13676;50.168;8.568;2024-01-10T08:46:36;58.72;;;26.83;;
25846;SDS011;13676;50.168;8.568;2024-01-10T08:49:01;53.97;;;26.38;;
25846;SDS011;13676;50.168;8.568;2024-01-10T08:51:26;60.20;;;27.20;;
25846;SDS011;13676;50.168;8.568;2024-01-10T08:53:52;58.45;;;24.42;;
25846;SDS011;13676;50.168;8.568;2024-01-10T08:56:18;54.92;;;25.88;;
25846;SDS011;13676;50.168;8.568;2024-01-10T08:58:44;47.92;;;23.92;;
25846;SDS011;13676;50.168;8.568;2024-01-10T09:01:10;53.83;;;23.55;;
25846;SDS011;13676;50.168;8.568;2024-01-10T09:03:36;50.63;;;22.88;;
25846;SDS011;13676;50.168;8.568;2024-01-10T09:06:02;51.08;;;24.75;;
25846;SDS011;13676;50.168;8.568;2024-01-10T09:08:29;53.88;;;25.65;;
25846;SDS011;13676;50.168;8.568;2024-01-10T09:10:54;51.25;;;25.20;;
25846;SDS011;13676;50.168;8.568;2024-01-10T09:13:20;48.30;;;22.67;;
25846;SDS011;13676;50.168;8.568;2024-01-10T09:15:45;47.58;;;21.30;;
25846;SDS011;13676;50.168;8.568;2024-01-10T09:18:11;52.13;;;21.85;;
25846;SDS011;13676;50.168;8.568;2024-01-10T09:20:37;48.90;;;21.08;;
25846;SDS011;13676;50.168;8.568;2024-01-10T09:23:03;50.28;;;22.48;;
25846;SDS011;13676;50.168;8.568;2024-01-10T09:25:29;44.08;;;22.95;;
25846;SDS011;13676;50.168;8.568;2024-01-10T09:27:54;53.85;;;23.25;;
25846;SDS011;13676;50.168;8.568;2024-01-10T09:30:22;48.10;;;22.70;;
25846;SDS011;13676;50.168;8.568;2024-01-10T09:32:49;49.90;;;23.85;;
25846;SDS011;13676;50.168;8.568;2024-01-10T09:35:15;50.80;;;24.90;;
25846;SDS011;13676;50.168;8.568;2024-01-10T09:37:40;48.17;;;24.33;;
25846;SDS011;13676;50.168;8.568;2024-01-10T09:40:06;46.05;;;21.90;;
25846;SDS011;13676;50.168;8.568;2024-01-10T09:42:33;53.90;;;25.75;;
25846;SDS011;13676;50.168;8.568;2024-01-10T09:45:00;55.67;;;24.33;;
25846;SDS011;13676;50.168;8.568;2024-01-10T09:47:26;52.78;;;24.08;;
25846;SDS011;13676;50.168;8.568;2024-01-10T09:49:51;47.47;;;23.80;;
25846;SDS011;13676;50.168;8.568;2024-01-10T09:52:20;52.88;;;25.08;;
25846;SDS011;13676;50.168;8.568;2024-01-10T09:54:48;59.50;;;25.08;;
25846;SDS011;13676;50.168;8.568;2024-01-10T09:57:24;55.63;;;25.75;;
25846;SDS011;13676;50.168;8.568;2024-01-10T09:59:51;53.65;;;23.60;;
25846;SDS011;13676;50.168;8.568;2024-01-10T10:02:17;54.45;;;24.60;;
25846;SDS011;13676;50.168;8.568;2024-01-10T10:05:03;53.40;;;25.25;;
25846;SDS011;13676;50.168;8.568;2024-01-10T10:07:29;53.25;;;25.63;;
25846;SDS011;13676;50.168;8.568;2024-01-10T10:09:54;59.33;;;25.65;;
25846;SDS011;13676;50.168;8.568;2024-01-10T10:12:28;57.40;;;25.63;;
25846;SDS011;13676;50.168;8.568;2024-01-10T10:15:09;50.72;;;25.17;;
25846;SDS011;13676;50.168;8.568;2024-01-10T10:17:40;56.42;;;25.60;;
25846;SDS011;13676;50.168;8.568;2024-01-10T10:23:03;46.58;;;22.55;;
25846;SDS011;13676;50.168;8.568;2024-01-10T10:25:32;49.42;;;24.92;;
25846;SDS011;13676;50.168;8.568;2024-01-10T10:28:15;59.40;;;24.25;;
25846;SDS011;13676;50.168;8.568;2024-01-10T10:30:40;47.25;;;23.85;;
25846;SDS011;13676;50.168;8.568;2024-01-10T10:33:07;50.80;;;22.70;;
25846;SDS011;13676;50.168;8.568;2024-01-10T10:35:35;56.25;;;24.08;;
25846;SDS011;13676;50.168;8.568;2024-01-10T10:38:00;48.90;;;23.00;;
25846;SDS011;13676;50.168;8.568;2024-01-10T10:40:26;45.28;;;22.73;;
25846;SDS011;13676;50.168;8.568;2024-01-10T10:42:56;47.80;;;22.55;;
25846;SDS011;13676;50.168;8.568;2024-01-10T10:45:22;53.20;;;23.05;;
25846;SDS011;13676;50.168;8.568;2024-01-10T10:47:53;52.08;;;25.67;;
25846;SDS011;13676;50.168;8.568;2024-01-10T10:50:27;47.50;;;21.02;;
25846;SDS011;13676;50.168;8.568;2024-01-10T10:52:54;42.42;;;22.48;;
25846;SDS011;13676;50.168;8.568;2024-01-10T10:55:21;48.63;;;22.33;;
25846;SDS011;13676;50.168;8.568;2024-01-10T10:57:48;52.03;;;24.35;;
25846;SDS011;13676;50.168;8.568;2024-01-10T11:00:19;43.42;;;22.58;;
25846;SDS011;13676;50.168;8.568;2024-01-10T11:02:52;49.33;;;23.77;;
25846;SDS011;13676;50.168;8.568;2024-01-10T11:07:45;42.97;;;21.63;;
25846;SDS011;13676;50.168;8.568;2024-01-10T11:10:33;47.05;;;20.98;;
25846;SDS011;13676;50.168;8.568;2024-01-10T11:24:14;49.83;;;21.33;;
25846;SDS011;13676;50.168;8.568;2024-01-10T11:26:41;39.15;;;20.92;;
25846;SDS011;13676;50.168;8.568;2024-01-10T11:29:07;38.13;;;17.93;;
25846;SDS011;13676;50.168;8.568;2024-01-10T11:31:35;46.95;;;23.00;;
25846;SDS011;13676;50.168;8.568;2024-01-10T11:34:05;49.83;;;24.08;;
25846;SDS011;13676;50.168;8.568;2024-01-10T11:36:34;51.80;;;24.27;;
25846;SDS011;13676;50.168;8.568;2024-01-10T11:39:05;52.80;;;24.55;;
25846;SDS011;13676;50.168;8.568;2024-01-10T11:41:38;46.92;;;21.98;;
25846;SDS011;13676;50.168;8.568;2024-01-10T11:46:47;45.25;;;20.85;;
25846;SDS011;13676;50.168;8.568;2024-01-10T11:49:19;50.65;;;21.70;;
25846;SDS011;13676;50.168;8.568;2024-01-10T11:51:46;46.92;;;20.80;;
25846;SDS011;13676;50.168;8.568;2024-01-10T11:59:54;37.60;;;18.23;;
25846;SDS011;13676;50.168;8.568;2024-01-10T12:02:25;40.60;;;19.42;;
25846;SDS011;13676;50.168;8.568;2024-01-10T12:05:06;41.13;;;19.88;;
25846;SDS011;13676;50.168;8.568;2024-01-10T12:07:42;48.05;;;22.27;;
25846;SDS011;13676;50.168;8.568;2024-01-10T12:10:08;27.40;;;14.68;;
25846;SDS011;13676;50.168;8.568;2024-01-10T12:12:42;42.05;;;20.25;;
25846;SDS011;13676;50.168;8.568;2024-01-10T12:15:14;47.45;;;21.77;;
25846;SDS011;13676;50.168;8.568;2024-01-10T12:17:40;38.92;;;19.55;;
25846;SDS011;13676;50.168;8.568;2024-01-10T12:20:05;44.03;;;21.50;;
25846;SDS011;13676;50.168;8.568;2024-01-10T12:22:31;38.05;;;19.23;;
25846;SDS011;13676;50.168;8.568;2024-01-10T12:25:08;45.55;;;21.15;;
25846;SDS011;13676;50.168;8.568;2024-01-10T12:27:48;46.15;;;21.85;;
25846;SDS011;13676;50.168;8.568;2024-01-10T12:30:17;45.03;;;21.85;;
25846;SDS011;13676;50.168;8.568;2024-01-10T12:33:06;35.55;;;17.80;;
25846;SDS011;13676;50.168;8.568;2024-01-10T12:35:37;39.15;;;18.55;;
25846;SDS011;13676;50.168;8.568;2024-01-10T12:38:10;41.88;;;20.48;;
25846;SDS011;13676;50.168;8.568;2024-01-10T12:40:40;43.83;;;22.33;;
25846;SDS011;13676;50.168;8.568;2024-01-10T12:43:07;44.55;;;22.38;;
25846;SDS011;13676;50.168;8.568;2024-01-10T12:45:40;39.95;;;19.02;;
25846;SDS011;13676;50.168;8.568;2024-01-10T12:48:12;37.22;;;19.85;;
25846;SDS011;13676;50.168;8.568;2024-01-10T12:50:46;37.95;;;19.27;;
25846;SDS011;13676;50.168;8.568;2024-01-10T12:53:19;46.60;;;20.52;;
25846;SDS011;13676;50.168;8.568;2024-01-10T12:55:47;35.75;;;18.40;;
25846;SDS011;13676;50.168;8.568;2024-01-10T12:58:17;45.47;;;21.58;;
25846;SDS011;13676;50.168;8.568;2024-01-10T13:01:13;41.10;;;19.80;;
25846;SDS011;13676;50.168;8.568;2024-01-10T13:03:58;39.08;;;20.02;;
25846;SDS011;13676;50.168;8.568;2024-01-10T13:06:26;42.92;;;20.80;;
25846;SDS011;13676;50.168;8.568;2024-01-10T13:08:55;41.90;;;21.63;;
25846;SDS011;13676;50.168;8.568;2024-01-10T13:11:24;40.65;;;19.25;;
25846;SDS011;13676;50.168;8.568;2024-01-10T13:13:52;41.00;;;21.65;;
25846;SDS011;13676;50.168;8.568;2024-01-10T13:16:22;47.83;;;21.20;;
25846;SDS011;13676;50.168;8.568;2024-01-10T13:18:52;41.85;;;22.60;;
25846;SDS011;13676;50.168;8.568;2024-01-10T13:21:19;44.95;;;19.40;;
25846;SDS011;13676;50.168;8.568;2024-01-10T13:26:19;37.40;;;19.10;;
25846;SDS011;13676;50.168;8.568;2024-01-10T13:29:00;35.83;;;18.05;;
25846;SDS011;13676;50.168;8.568;2024-01-10T13:34:26;37.92;;;18.05;;
25846;SDS011;13676;50.168;8.568;2024-01-10T13:37:14;39.03;;;17.15;;
25846;SDS011;13676;50.168;8.568;2024-01-10T13:39:42;33.72;;;18.33;;
25846;SDS011;13676;50.168;8.568;2024-01-10T13:42:14;31.48;;;15.32;;
25846;SDS011;13676;50.168;8.568;2024-01-10T13:45:15;43.33;;;18.98;;
25846;SDS011;13676;50.168;8.568;2024-01-10T13:47:47;32.33;;;16.13;;
25846;SDS011;13676;50.168;8.568;2024-01-10T13:50:23;36.25;;;17.58;;
25846;SDS011;13676;50.168;8.568;2024-01-10T13:53:04;34.97;;;16.27;;
25846;SDS011;13676;50.168;8.568;2024-01-10T13:55:39;28.73;;;15.07;;
25846;SDS011;13676;50.168;8.568;2024-01-10T13:58:33;35.63;;;15.95;;
25846;SDS011;13676;50.168;8.568;2024-01-10T14:01:09;32.65;;;16.85;;
25846;SDS011;13676;50.168;8.568;2024-01-10T14:03:44;32.20;;;17.48;;
25846;SDS011;13676;50.168;8.568;2024-01-10T14:06:21;34.15;;;17.27;;
25846;SDS011;13676;50.168;8.568;2024-01-10T14:08:52;33.63;;;16.90;;
25846;SDS011;13676;50.168;8.568;2024-01-10T14:11:19;32.00;;;17.90;;
25846;SDS011;13676;50.168;8.568;2024-01-10T14:13:46;34.83;;;17.23;;
25846;SDS011;13676;50.168;8.568;2024-01-10T14:16:13;35.35;;;17.73;;
25846;SDS011;13676;50.168;8.568;2024-01-10T14:18:42;38.35;;;18.35;;
25846;SDS011;13676;50.168;8.568;2024-01-10T14:21:28;30.80;;;16.00;;
25846;SDS011;13676;50.168;8.568;2024-01-10T14:23:59;28.13;;;14.88;;
25846;SDS011;13676;50.168;8.568;2024-01-10T14:26:49;34.55;;;17.35;;
25846;SDS011;13676;50.168;8.568;2024-01-10T14:30:12;36.78;;;16.58;;
25846;SDS011;13676;50.168;8.568;2024-01-10T14:33:23;36.28;;;17.65;;
25846;SDS011;13676;50.168;8.568;2024-01-10T14:35:50;33.60;;;17.60;;
25846;SDS011;13676;50.168;8.568;2024-01-10T14:38:45;34.88;;;17.38;;
25846;SDS011;13676;50.168;8.568;2024-01-10T14:41:29;34.65;;;16.50;;
25846;SDS011;13676;50.168;8.568;2024-01-10T14:44:26;34.80;;;16.17;;
25846;SDS011;13676;50.168;8.568;2024-01-10T14:47:37;28.52;;;14.68;;
25846;SDS011;13676;50.168;8.568;2024-01-10T14:50:52;35.22;;;17.73;;
25846;SDS011;13676;50.168;8.568;2024-01-10T14:53:54;37.47;;;18.10;;
25846;SDS011;13676;50.168;8.568;2024-01-10T14:56:21;38.75;;;18.25;;
25846;SDS011;13676;50.168;8.568;2024-01-10T14:58:53;35.47;;;18.80;;
25846;SDS011;13676;50.168;8.568;2024-01-10T15:01:19;35.03;;;18.15;;
25846;SDS011;13676;50.168;8.568;2024-01-10T15:03:50;31.63;;;16.35;;
25846;SDS011;13676;50.168;8.568;2024-01-10T15:06:18;38.45;;;19.05;;